Aérodrome :







RETROUVEZ-NOUS SUR...

 
LOGIN :

S'inscrire | Disclaimer

   EN    FR    IT 

 









Légende :    VFR   VFR Marginal   IFR   IFR Intensif   IFR Très Intensif
Visi : 
Plafond : 
>= 8 km
>= 3000ft
5 à 8 km
1000 à 3000 ft
1500m à 5 km
500 à 1000 ft
800 à 1500m
200 à 500 ft
< 800m
< 200 ft
Symboles :   Orages  Brouillard  Fortes neiges  Fortes précipitations  Vent > 20 kt






- Altitude de l'aérodrome : 352 ft


KAUG - Augusta State

DERNIER METAR :
  • 150233Z AUTO 16012KT 1/2SM -RA FG VV002 11/11 A2909 RMK AO2 RAB0154 P0002 T01110111

METARs EXPIRÉS :
  • 150153Z AUTO 16009KT 1/4SM FG VV002 10/10 A2911 RMK AO2 SLP860 P0001 T01000100
  • 150053Z AUTO 15003KT 1/4SM FG VV003 08/08 A2917 RMK AO2 RAE40 SLP878 P0002 T00780078
  • 142353Z AUTO 07004KT 1/2SM -RA FG VV003 07/07 A2920 RMK AO2 RAB19 SLP891 P0002 60010 T00720072 10094 20061 55026

TAF KAUG
Valide du 15 à 03h jusqu'au 16 à 00h UTC


150237Z 1503/1524 16012KT 1/2SM -RA FG VV002 WS020/20040KT
TEMPO 1503/1505 1SM BR OVC005
FM150500 20012G22KT P6SM OVC010
FM150900 22014G25KT P6SM BKN070



MET'MAP, la Météo Aéronautique d'un coup d'oeil ! - Copyright ORBIFLY Décembre 2007 - Disclaimer

ORBIFLY MET'MAP TEAM :

Programmation & Développement : Alexandra Zaïnal
Sur une idée originale de : Baudouin d'Aumeries
Assistance à la programmation : Marc-Olivier Méhu
Soutien technique & logistique : Manuel Goepfert

Contact : metmap@orbifly.com




SOURCES & CREDITS :

   NOAA